sensor_id;sensor_type;location;lat;lon;timestamp;pressure;altitude;pressure_sealevel;temperature;humidity
56270;BME280;42176;43.240;27.880;2023-04-02T00:07:50;98856.66;;;10.21;100.00
56270;BME280;42176;43.240;27.880;2023-04-02T00:15:34;98874.47;;;10.18;100.00
56270;BME280;42176;43.240;27.880;2023-04-02T00:18:01;98879.00;;;10.14;100.00
56270;BME280;42176;43.240;27.880;2023-04-02T00:20:31;98880.06;;;10.10;98.86
56270;BME280;42176;43.240;27.880;2023-04-02T00:22:58;98874.09;;;10.05;98.10
56270;BME280;42176;43.240;27.880;2023-04-02T00:25:26;98873.22;;;10.04;98.05
56270;BME280;42176;43.240;27.880;2023-04-02T00:27:53;98884.00;;;10.00;98.60
56270;BME280;42176;43.240;27.880;2023-04-02T00:30:20;98892.41;;;9.87;98.58
56270;BME280;42176;43.240;27.880;2023-04-02T00:32:45;98897.72;;;9.87;98.39
56270;BME280;42176;43.240;27.880;2023-04-02T00:35:29;98901.16;;;9.89;98.40
56270;BME280;42176;43.240;27.880;2023-04-02T00:37:55;98869.41;;;9.89;98.47
56270;BME280;42176;43.240;27.880;2023-04-02T00:40:29;98905.09;;;9.79;99.02
56270;BME280;42176;43.240;27.880;2023-04-02T00:42:58;98901.53;;;9.80;99.27
56270;BME280;42176;43.240;27.880;2023-04-02T00:45:35;98885.09;;;9.72;99.91
56270;BME280;42176;43.240;27.880;2023-04-02T00:48:35;98913.44;;;9.68;100.00
56270;BME280;42176;43.240;27.880;2023-04-02T00:51:23;98901.88;;;9.71;100.00
56270;BME280;42176;43.240;27.880;2023-04-02T00:53:52;98898.41;;;9.69;100.00
56270;BME280;42176;43.240;27.880;2023-04-02T00:56:24;98895.09;;;9.64;100.00
56270;BME280;42176;43.240;27.880;2023-04-02T00:58:54;98896.84;;;9.65;99.95
56270;BME280;42176;43.240;27.880;2023-04-02T01:01:34;98899.69;;;9.58;100.00
56270;BME280;42176;43.240;27.880;2023-04-02T01:04:02;98898.78;;;9.59;100.00
56270;BME280;42176;43.240;27.880;2023-04-02T01:06:29;98905.69;;;9.64;100.00
56270;BME280;42176;43.240;27.880;2023-04-02T01:09:19;98911.94;;;9.61;100.00
56270;BME280;42176;43.240;27.880;2023-04-02T01:11:56;98914.78;;;9.56;100.00
56270;BME280;42176;43.240;27.880;2023-04-02T01:14:48;98910.56;;;9.51;100.00
56270;BME280;42176;43.240;27.880;2023-04-02T01:25:42;98891.88;;;9.55;100.00
56270;BME280;42176;43.240;27.880;2023-04-02T01:28:21;98912.72;;;9.65;100.00
56270;BME280;42176;43.240;27.880;2023-04-02T01:30:54;98909.13;;;9.66;100.00
56270;BME280;42176;43.240;27.880;2023-04-02T01:33:32;98916.84;;;9.72;100.00
56270;BME280;42176;43.240;27.880;2023-04-02T01:36:12;98913.97;;;9.78;100.00
56270;BME280;42176;43.240;27.880;2023-04-02T01:38:46;98919.47;;;9.72;100.00
56270;BME280;42176;43.240;27.880;2023-04-02T01:41:27;98909.63;;;9.75;100.00
56270;BME280;42176;43.240;27.880;2023-04-02T01:44:02;98917.66;;;9.74;100.00
56270;BME280;42176;43.240;27.880;2023-04-02T01:46:31;98911.34;;;9.77;100.00
56270;BME280;42176;43.240;27.880;2023-04-02T01:49:00;98919.25;;;9.78;100.00
56270;BME280;42176;43.240;27.880;2023-04-02T01:51:32;98905.66;;;9.87;100.00
56270;BME280;42176;43.240;27.880;2023-04-02T01:54:00;98903.63;;;9.94;99.90
56270;BME280;42176;43.240;27.880;2023-04-02T01:56:27;98897.41;;;9.95;99.65
56270;BME280;42176;43.240;27.880;2023-04-02T01:58:55;98890.47;;;9.93;100.00
56270;BME280;42176;43.240;27.880;2023-04-02T02:01:25;98889.53;;;9.94;100.00
56270;BME280;42176;43.240;27.880;2023-04-02T02:03:52;98902.91;;;9.90;99.68
56270;BME280;42176;43.240;27.880;2023-04-02T02:06:19;98898.59;;;9.88;99.58
56270;BME280;42176;43.240;27.880;2023-04-02T02:08:54;98898.63;;;9.86;99.32
56270;BME280;42176;43.240;27.880;2023-04-02T02:11:24;98894.38;;;9.82;99.63
56270;BME280;42176;43.240;27.880;2023-04-02T02:13:59;98882.44;;;9.72;100.00
56270;BME280;42176;43.240;27.880;2023-04-02T02:16:26;98887.63;;;9.75;99.78
56270;BME280;42176;43.240;27.880;2023-04-02T02:19:03;98889.69;;;9.67;100.00
56270;BME280;42176;43.240;27.880;2023-04-02T02:21:47;98887.78;;;9.70;99.87
56270;BME280;42176;43.240;27.880;2023-04-02T02:24:22;98894.00;;;9.69;100.00
56270;BME280;42176;43.240;27.880;2023-04-02T02:27:00;98891.38;;;9.69;100.00
56270;BME280;42176;43.240;27.880;2023-04-02T02:29:30;98901.19;;;9.66;100.00
56270;BME280;42176;43.240;27.880;2023-04-02T02:32:00;98902.25;;;9.62;100.00
56270;BME280;42176;43.240;27.880;2023-04-02T02:34:34;98898.31;;;9.72;100.00
56270;BME280;42176;43.240;27.880;2023-04-02T02:37:05;98907.41;;;9.65;100.00
56270;BME280;42176;43.240;27.880;2023-04-02T02:39:42;98917.66;;;9.74;100.00
56270;BME280;42176;43.240;27.880;2023-04-02T02:44:49;98910.41;;;9.79;100.00
56270;BME280;42176;43.240;27.880;2023-04-02T02:47:22;98905.84;;;9.83;100.00
56270;BME280;42176;43.240;27.880;2023-04-02T02:49:54;98919.63;;;9.91;100.00
56270;BME280;42176;43.240;27.880;2023-04-02T02:52:31;98915.22;;;9.92;99.71
56270;BME280;42176;43.240;27.880;2023-04-02T02:55:07;98895.66;;;9.96;99.05
56270;BME280;42176;43.240;27.880;2023-04-02T02:57:37;98902.63;;;9.97;98.03
56270;BME280;42176;43.240;27.880;2023-04-02T03:00:06;98908.81;;;9.97;97.29
56270;BME280;42176;43.240;27.880;2023-04-02T03:02:36;98912.09;;;10.04;96.45
56270;BME280;42176;43.240;27.880;2023-04-02T03:05:03;98917.50;;;10.01;96.58
56270;BME280;42176;43.240;27.880;2023-04-02T03:07:29;98911.53;;;9.96;96.84
56270;BME280;42176;43.240;27.880;2023-04-02T03:12:48;98924.88;;;9.93;97.09
56270;BME280;42176;43.240;27.880;2023-04-02T03:17:54;98933.50;;;9.98;96.80
56270;BME280;42176;43.240;27.880;2023-04-02T03:23:02;98933.34;;;10.02;96.77
56270;BME280;42176;43.240;27.880;2023-04-02T03:25:40;98938.38;;;10.09;96.88
56270;BME280;42176;43.240;27.880;2023-04-02T03:28:14;98942.56;;;10.14;96.54
56270;BME280;42176;43.240;27.880;2023-04-02T03:31:24;98905.13;;;10.01;95.89
56270;BME280;42176;43.240;27.880;2023-04-02T03:34:00;98941.53;;;10.18;96.04
56270;BME280;42176;43.240;27.880;2023-04-02T03:41:58;98936.97;;;10.22;95.68
56270;BME280;42176;43.240;27.880;2023-04-02T03:47:13;98933.47;;;10.21;95.51
56270;BME280;42176;43.240;27.880;2023-04-02T03:49:46;98915.97;;;10.17;95.71
56270;BME280;42176;43.240;27.880;2023-04-02T03:52:26;98926.97;;;10.29;95.79
56270;BME280;42176;43.240;27.880;2023-04-02T03:54:56;98930.69;;;10.25;95.73
56270;BME280;42176;43.240;27.880;2023-04-02T03:57:37;98924.59;;;10.23;95.99
56270;BME280;42176;43.240;27.880;2023-04-02T04:00:15;98927.06;;;10.27;95.92
56270;BME280;42176;43.240;27.880;2023-04-02T04:02:57;98939.56;;;10.24;96.11
56270;BME280;42176;43.240;27.880;2023-04-02T04:05:29;98940.59;;;10.19;96.11
56270;BME280;42176;43.240;27.880;2023-04-02T04:08:00;98953.53;;;10.27;96.35
56270;BME280;42176;43.240;27.880;2023-04-02T04:10:28;98959.53;;;10.32;96.03
56270;BME280;42176;43.240;27.880;2023-04-02T04:13:05;98961.75;;;10.43;95.98
56270;BME280;42176;43.240;27.880;2023-04-02T04:15:51;98965.38;;;10.63;94.67
56270;BME280;42176;43.240;27.880;2023-04-02T04:18:33;98962.63;;;10.66;93.03
56270;BME280;42176;43.240;27.880;2023-04-02T04:21:12;98978.56;;;10.87;92.31
56270;BME280;42176;43.240;27.880;2023-04-02T04:23:40;98983.53;;;10.94;91.06
56270;BME280;42176;43.240;27.880;2023-04-02T04:26:25;98991.44;;;11.17;89.66
56270;BME280;42176;43.240;27.880;2023-04-02T04:31:40;98991.81;;;13.19;76.79
56270;BME280;42176;43.240;27.880;2023-04-02T04:34:14;98988.75;;;13.96;72.33
56270;BME280;42176;43.240;27.880;2023-04-02T04:36:45;98992.72;;;14.53;68.39
56270;BME280;42176;43.240;27.880;2023-04-02T04:39:49;98998.56;;;14.27;68.29
56270;BME280;42176;43.240;27.880;2023-04-02T04:42:22;98998.19;;;14.18;68.65
56270;BME280;42176;43.240;27.880;2023-04-02T04:47:50;98998.81;;;13.73;70.33
56270;BME280;42176;43.240;27.880;2023-04-02T04:50:29;98995.94;;;13.78;70.44
56270;BME280;42176;43.240;27.880;2023-04-02T04:53:07;98989.22;;;13.86;69.91
56270;BME280;42176;43.240;27.880;2023-04-02T04:55:38;99001.13;;;14.93;65.18
56270;BME280;42176;43.240;27.880;2023-04-02T05:04:34;99002.72;;;16.71;54.90
56270;BME280;42176;43.240;27.880;2023-04-02T05:07:05;99001.19;;;16.54;55.01
56270;BME280;42176;43.240;27.880;2023-04-02T05:09:43;99005.75;;;15.95;56.63
56270;BME280;42176;43.240;27.880;2023-04-02T05:17:43;99016.56;;;15.78;56.81
56270;BME280;42176;43.240;27.880;2023-04-02T05:20:30;99025.31;;;15.51;58.26
56270;BME280;42176;43.240;27.880;2023-04-02T05:23:03;99017.78;;;15.13;59.68
56270;BME280;42176;43.240;27.880;2023-04-02T05:25:31;99036.06;;;16.23;56.42
56270;BME280;42176;43.240;27.880;2023-04-02T05:32:58;99038.22;;;15.28;59.98
56270;BME280;42176;43.240;27.880;2023-04-02T05:35:32;99045.06;;;16.22;57.34
56270;BME280;42176;43.240;27.880;2023-04-02T05:37:59;99049.44;;;16.09;57.82
56270;BME280;42176;43.240;27.880;2023-04-02T05:40:40;99041.38;;;15.80;57.78
56270;BME280;42176;43.240;27.880;2023-04-02T05:43:09;99044.06;;;15.80;58.57
56270;BME280;42176;43.240;27.880;2023-04-02T05:45:36;99042.41;;;15.18;60.09
56270;BME280;42176;43.240;27.880;2023-04-02T05:48:15;99038.84;;;14.87;62.12
56270;BME280;42176;43.240;27.880;2023-04-02T05:50:44;99027.47;;;14.67;63.50
56270;BME280;42176;43.240;27.880;2023-04-02T05:53:33;99019.53;;;14.50;64.58
56270;BME280;42176;43.240;27.880;2023-04-02T05:58:55;99029.53;;;14.30;65.87
56270;BME280;42176;43.240;27.880;2023-04-02T06:09:26;99038.41;;;13.97;67.86
56270;BME280;42176;43.240;27.880;2023-04-02T06:11:53;99050.44;;;13.88;68.37
56270;BME280;42176;43.240;27.880;2023-04-02T06:14:20;99044.56;;;13.81;68.57
56270;BME280;42176;43.240;27.880;2023-04-02T06:16:46;99045.53;;;13.96;67.90
56270;BME280;42176;43.240;27.880;2023-04-02T06:19:19;99042.97;;;14.11;68.19
56270;BME280;42176;43.240;27.880;2023-04-02T06:21:47;99051.19;;;14.24;67.36
56270;BME280;42176;43.240;27.880;2023-04-02T06:24:18;99053.78;;;14.41;66.96
56270;BME280;42176;43.240;27.880;2023-04-02T06:26:51;99056.88;;;14.50;66.48
56270;BME280;42176;43.240;27.880;2023-04-02T06:29:27;99062.78;;;14.72;65.48
56270;BME280;42176;43.240;27.880;2023-04-02T06:32:00;99059.06;;;14.91;63.35
56270;BME280;42176;43.240;27.880;2023-04-02T06:34:27;99064.69;;;15.17;62.71
56270;BME280;42176;43.240;27.880;2023-04-02T06:37:14;99060.56;;;15.42;61.43
56270;BME280;42176;43.240;27.880;2023-04-02T06:39:41;99071.63;;;15.80;59.76
56270;BME280;42176;43.240;27.880;2023-04-02T06:42:13;99076.00;;;16.12;57.95
56270;BME280;42176;43.240;27.880;2023-04-02T06:44:41;99078.38;;;15.88;57.97
56270;BME280;42176;43.240;27.880;2023-04-02T06:47:18;99068.22;;;15.48;59.88
56270;BME280;42176;43.240;27.880;2023-04-02T06:50:14;99072.31;;;15.39;60.60
56270;BME280;42176;43.240;27.880;2023-04-02T06:52:52;99084.16;;;15.19;61.59
56270;BME280;42176;43.240;27.880;2023-04-02T06:57:45;99072.81;;;14.67;63.66
56270;BME280;42176;43.240;27.880;2023-04-02T07:02:49;99063.66;;;15.50;60.26
56270;BME280;42176;43.240;27.880;2023-04-02T07:05:15;99070.22;;;17.97;52.48
56270;BME280;42176;43.240;27.880;2023-04-02T07:07:40;99067.88;;;18.31;50.00
56270;BME280;42176;43.240;27.880;2023-04-02T07:10:06;99063.44;;;17.78;51.09
56270;BME280;42176;43.240;27.880;2023-04-02T07:12:33;99077.72;;;17.39;52.43
56270;BME280;42176;43.240;27.880;2023-04-02T07:14:58;99073.16;;;18.20;50.26
56270;BME280;42176;43.240;27.880;2023-04-02T07:17:24;99084.66;;;18.59;49.54
56270;BME280;42176;43.240;27.880;2023-04-02T07:19:49;99059.78;;;18.94;49.70
56270;BME280;42176;43.240;27.880;2023-04-02T07:22:18;99073.84;;;21.61;44.71
56270;BME280;42176;43.240;27.880;2023-04-02T07:24:44;99068.69;;;22.53;40.19
56270;BME280;42176;43.240;27.880;2023-04-02T07:27:12;99059.50;;;22.75;38.74
56270;BME280;42176;43.240;27.880;2023-04-02T07:29:38;99073.56;;;23.59;37.37
56270;BME280;42176;43.240;27.880;2023-04-02T07:32:10;99081.03;;;21.93;40.54
56270;BME280;42176;43.240;27.880;2023-04-02T07:34:37;99054.28;;;20.26;42.71
56270;BME280;42176;43.240;27.880;2023-04-02T07:37:03;99067.41;;;18.87;46.25
56270;BME280;42176;43.240;27.880;2023-04-02T07:39:28;99085.97;;;18.40;48.20
56270;BME280;42176;43.240;27.880;2023-04-02T07:41:56;99082.84;;;17.29;50.81
56270;BME280;42176;43.240;27.880;2023-04-02T07:44:22;99089.84;;;16.89;52.92
56270;BME280;42176;43.240;27.880;2023-04-02T07:46:47;99085.56;;;16.31;55.15
56270;BME280;42176;43.240;27.880;2023-04-02T07:49:13;99092.81;;;16.00;56.90
56270;BME280;42176;43.240;27.880;2023-04-02T07:51:38;99107.75;;;15.57;59.42
56270;BME280;42176;43.240;27.880;2023-04-02T07:54:04;99105.56;;;15.33;61.56
56270;BME280;42176;43.240;27.880;2023-04-02T07:56:34;99115.78;;;14.95;63.05
56270;BME280;42176;43.240;27.880;2023-04-02T07:58:59;99113.72;;;14.84;64.38
56270;BME280;42176;43.240;27.880;2023-04-02T08:01:26;99121.50;;;14.55;66.52
56270;BME280;42176;43.240;27.880;2023-04-02T08:03:53;99112.59;;;14.38;67.63
56270;BME280;42176;43.240;27.880;2023-04-02T08:06:18;99127.53;;;14.25;69.17
56270;BME280;42176;43.240;27.880;2023-04-02T08:08:44;99131.69;;;14.30;69.37
56270;BME280;42176;43.240;27.880;2023-04-02T08:11:10;99143.09;;;14.16;69.83
56270;BME280;42176;43.240;27.880;2023-04-02T08:13:36;99136.78;;;14.18;69.98
56270;BME280;42176;43.240;27.880;2023-04-02T08:16:03;99152.78;;;14.18;70.84
56270;BME280;42176;43.240;27.880;2023-04-02T08:18:29;99140.72;;;14.10;71.28
56270;BME280;42176;43.240;27.880;2023-04-02T08:20:55;99149.97;;;14.03;71.52
56270;BME280;42176;43.240;27.880;2023-04-02T08:23:21;99165.50;;;14.12;71.90
56270;BME280;42176;43.240;27.880;2023-04-02T08:25:47;99156.16;;;14.21;71.67
56270;BME280;42176;43.240;27.880;2023-04-02T08:28:13;99145.56;;;14.20;71.46
56270;BME280;42176;43.240;27.880;2023-04-02T08:30:38;99152.03;;;14.15;70.57
56270;BME280;42176;43.240;27.880;2023-04-02T08:33:04;99167.06;;;14.16;70.27
56270;BME280;42176;43.240;27.880;2023-04-02T08:35:31;99166.06;;;14.35;70.33
56270;BME280;42176;43.240;27.880;2023-04-02T08:37:56;99163.47;;;14.51;68.32
56270;BME280;42176;43.240;27.880;2023-04-02T08:48:29;99155.47;;;14.67;66.27
56270;BME280;42176;43.240;27.880;2023-04-02T08:50:57;99152.81;;;14.67;66.54
56270;BME280;42176;43.240;27.880;2023-04-02T08:53:30;99162.16;;;14.76;65.92
56270;BME280;42176;43.240;27.880;2023-04-02T08:58:49;99170.69;;;14.83;65.49
56270;BME280;42176;43.240;27.880;2023-04-02T09:03:58;99182.38;;;14.96;64.60
56270;BME280;42176;43.240;27.880;2023-04-02T09:06:25;99181.38;;;15.15;63.48
56270;BME280;42176;43.240;27.880;2023-04-02T09:08:52;99169.75;;;15.16;63.93
56270;BME280;42176;43.240;27.880;2023-04-02T09:13:51;99177.91;;;15.45;62.77
56270;BME280;42176;43.240;27.880;2023-04-02T09:16:19;99179.78;;;15.43;63.69
56270;BME280;42176;43.240;27.880;2023-04-02T09:18:48;99177.72;;;15.48;63.40
56270;BME280;42176;43.240;27.880;2023-04-02T09:21:29;99178.91;;;15.58;63.40
56270;BME280;42176;43.240;27.880;2023-04-02T09:23:55;99174.94;;;15.65;63.53
56270;BME280;42176;43.240;27.880;2023-04-02T09:26:24;99179.56;;;15.78;62.97
56270;BME280;42176;43.240;27.880;2023-04-02T09:28:58;99185.94;;;15.91;62.43
56270;BME280;42176;43.240;27.880;2023-04-02T09:31:46;99181.78;;;16.02;62.67
56270;BME280;42176;43.240;27.880;2023-04-02T09:34:31;99185.00;;;16.07;62.16
56270;BME280;42176;43.240;27.880;2023-04-02T09:37:16;99188.84;;;16.03;62.10
56270;BME280;42176;43.240;27.880;2023-04-02T09:39:41;99195.53;;;16.10;61.56
56270;BME280;42176;43.240;27.880;2023-04-02T09:42:30;99184.50;;;16.31;60.28
56270;BME280;42176;43.240;27.880;2023-04-02T09:45:20;99184.09;;;16.37;60.03
56270;BME280;42176;43.240;27.880;2023-04-02T09:47:48;99178.19;;;16.61;58.67
56270;BME280;42176;43.240;27.880;2023-04-02T09:52:48;99181.63;;;16.92;57.25
56270;BME280;42176;43.240;27.880;2023-04-02T09:57:42;99190.25;;;16.97;56.92
56270;BME280;42176;43.240;27.880;2023-04-02T10:02:42;99161.56;;;16.99;56.32
56270;BME280;42176;43.240;27.880;2023-04-02T10:05:20;99172.41;;;17.25;55.81
56270;BME280;42176;43.240;27.880;2023-04-02T10:07:52;99186.34;;;17.30;55.57
56270;BME280;42176;43.240;27.880;2023-04-02T10:10:38;99185.84;;;17.38;55.43
56270;BME280;42176;43.240;27.880;2023-04-02T10:16:00;99198.03;;;17.14;56.16
56270;BME280;42176;43.240;27.880;2023-04-02T10:21:00;99200.19;;;16.80;56.79
56270;BME280;42176;43.240;27.880;2023-04-02T10:23:29;99205.91;;;16.74;57.36
56270;BME280;42176;43.240;27.880;2023-04-02T10:34:23;99217.28;;;16.04;60.39
56270;BME280;42176;43.240;27.880;2023-04-02T10:36:57;99225.94;;;15.93;61.51
56270;BME280;42176;43.240;27.880;2023-04-02T10:39:33;99223.34;;;15.91;62.18
56270;BME280;42176;43.240;27.880;2023-04-02T10:44:53;99231.34;;;15.91;62.90
56270;BME280;42176;43.240;27.880;2023-04-02T10:53:17;99243.88;;;16.36;60.34
56270;BME280;42176;43.240;27.880;2023-04-02T10:55:48;99239.53;;;16.49;60.14
56270;BME280;42176;43.240;27.880;2023-04-02T10:58:21;99249.66;;;16.58;59.46
56270;BME280;42176;43.240;27.880;2023-04-02T11:00:49;99242.97;;;16.51;58.49
56270;BME280;42176;43.240;27.880;2023-04-02T11:03:49;99240.88;;;16.71;57.80
56270;BME280;42176;43.240;27.880;2023-04-02T11:06:20;99250.06;;;16.81;57.49
56270;BME280;42176;43.240;27.880;2023-04-02T11:08:50;99248.13;;;16.54;57.77
56270;BME280;42176;43.240;27.880;2023-04-02T11:11:19;99239.91;;;16.43;57.84
56270;BME280;42176;43.240;27.880;2023-04-02T11:16:23;99239.91;;;16.43;58.09
56270;BME280;42176;43.240;27.880;2023-04-02T11:19:08;99243.38;;;16.59;57.15
56270;BME280;42176;43.240;27.880;2023-04-02T11:21:38;99241.47;;;16.62;57.36
56270;BME280;42176;43.240;27.880;2023-04-02T11:24:05;99242.00;;;16.67;57.08
56270;BME280;42176;43.240;27.880;2023-04-02T11:26:46;99240.41;;;16.64;56.66
56270;BME280;42176;43.240;27.880;2023-04-02T11:29:26;99257.41;;;16.63;56.32
56270;BME280;42176;43.240;27.880;2023-04-02T11:35:22;99241.06;;;16.53;56.06
56270;BME280;42176;43.240;27.880;2023-04-02T11:37:47;99238.78;;;16.62;55.53
56270;BME280;42176;43.240;27.880;2023-04-02T11:53:01;99243.50;;;17.16;51.67
56270;BME280;42176;43.240;27.880;2023-04-02T11:55:36;99245.66;;;17.38;51.54
56270;BME280;42176;43.240;27.880;2023-04-02T12:01:33;99235.81;;;17.66;50.57
56270;BME280;42176;43.240;27.880;2023-04-02T12:11:39;99238.16;;;17.71;48.66
56270;BME280;42176;43.240;27.880;2023-04-02T12:14:42;99242.44;;;17.60;49.44
56270;BME280;42176;43.240;27.880;2023-04-02T12:17:31;99248.25;;;17.67;49.39
56270;BME280;42176;43.240;27.880;2023-04-02T12:20:00;99247.41;;;17.79;48.93
56270;BME280;42176;43.240;27.880;2023-04-02T12:22:31;99244.41;;;17.71;49.19
56270;BME280;42176;43.240;27.880;2023-04-02T12:25:03;99251.41;;;17.17;52.47
56270;BME280;42176;43.240;27.880;2023-04-02T12:27:29;99252.75;;;16.81;54.37
56270;BME280;42176;43.240;27.880;2023-04-02T12:30:21;99246.63;;;16.79;54.63
56270;BME280;42176;43.240;27.880;2023-04-02T12:32:48;99255.03;;;16.87;55.29
56270;BME280;42176;43.240;27.880;2023-04-02T12:35:29;99256.16;;;16.69;56.79
56270;BME280;42176;43.240;27.880;2023-04-02T12:37:56;99262.88;;;16.62;59.07
56270;BME280;42176;43.240;27.880;2023-04-02T12:40:22;99255.88;;;16.59;60.31
56270;BME280;42176;43.240;27.880;2023-04-02T12:42:48;99258.47;;;16.61;59.82
56270;BME280;42176;43.240;27.880;2023-04-02T12:45:25;99259.56;;;16.42;60.63
56270;BME280;42176;43.240;27.880;2023-04-02T12:47:51;99258.03;;;16.38;60.17
56270;BME280;42176;43.240;27.880;2023-04-02T12:50:18;99259.50;;;16.13;61.25
56270;BME280;42176;43.240;27.880;2023-04-02T12:52:46;99256.41;;;16.05;62.21
56270;BME280;42176;43.240;27.880;2023-04-02T12:55:23;99265.41;;;16.04;62.32
56270;BME280;42176;43.240;27.880;2023-04-02T12:57:56;99250.44;;;15.85;63.18
56270;BME280;42176;43.240;27.880;2023-04-02T13:03:00;99269.16;;;15.85;63.38
56270;BME280;42176;43.240;27.880;2023-04-02T13:08:01;99266.75;;;16.11;61.84
56270;BME280;42176;43.240;27.880;2023-04-02T13:10:27;99254.19;;;16.27;60.62
56270;BME280;42176;43.240;27.880;2023-04-02T13:13:00;99252.16;;;16.47;58.36
56270;BME280;42176;43.240;27.880;2023-04-02T13:15:32;99245.25;;;16.43;57.59
56270;BME280;42176;43.240;27.880;2023-04-02T13:18:05;99248.53;;;16.48;56.94
56270;BME280;42176;43.240;27.880;2023-04-02T13:20:35;99256.84;;;16.58;56.78
56270;BME280;42176;43.240;27.880;2023-04-02T13:25:47;99246.84;;;16.31;55.71
56270;BME280;42176;43.240;27.880;2023-04-02T13:28:13;99244.09;;;16.33;55.62
56270;BME280;42176;43.240;27.880;2023-04-02T13:30:39;99249.28;;;16.50;55.24
56270;BME280;42176;43.240;27.880;2023-04-02T13:33:04;99249.28;;;16.50;56.16
56270;BME280;42176;43.240;27.880;2023-04-02T13:35:29;99245.56;;;16.53;56.61
56270;BME280;42176;43.240;27.880;2023-04-02T13:37:55;99248.88;;;16.42;56.61
56270;BME280;42176;43.240;27.880;2023-04-02T13:40:20;99248.84;;;16.27;57.33
56270;BME280;42176;43.240;27.880;2023-04-02T13:42:50;99250.38;;;16.17;57.84
56270;BME280;42176;43.240;27.880;2023-04-02T13:45:25;99251.66;;;16.10;58.95
56270;BME280;42176;43.240;27.880;2023-04-02T13:47:52;99253.00;;;16.03;58.34
56270;BME280;42176;43.240;27.880;2023-04-02T13:50:22;99253.00;;;16.03;59.44
56270;BME280;42176;43.240;27.880;2023-04-02T13:52:50;99249.94;;;16.09;59.52
56270;BME280;42176;43.240;27.880;2023-04-02T13:55:18;99252.16;;;16.17;60.28
56270;BME280;42176;43.240;27.880;2023-04-02T13:57:46;99248.25;;;16.22;60.20
56270;BME280;42176;43.240;27.880;2023-04-02T14:00:14;99249.53;;;16.31;59.98
56270;BME280;42176;43.240;27.880;2023-04-02T14:02:43;99251.56;;;16.42;59.41
56270;BME280;42176;43.240;27.880;2023-04-02T14:05:27;99251.38;;;16.59;58.82
56270;BME280;42176;43.240;27.880;2023-04-02T14:18:59;99246.41;;;16.68;59.56
56270;BME280;42176;43.240;27.880;2023-04-02T14:24:53;99250.25;;;16.49;58.87
56270;BME280;42176;43.240;27.880;2023-04-02T14:32:46;99244.66;;;16.38;57.84
56270;BME280;42176;43.240;27.880;2023-04-02T14:35:34;99250.78;;;16.40;57.71
56270;BME280;42176;43.240;27.880;2023-04-02T14:38:38;99250.47;;;16.30;57.27
56270;BME280;42176;43.240;27.880;2023-04-02T14:41:19;99251.88;;;16.21;56.55
56270;BME280;42176;43.240;27.880;2023-04-02T14:44:00;99247.41;;;16.22;57.62
56270;BME280;42176;43.240;27.880;2023-04-02T14:46:30;99255.16;;;16.26;56.84
56270;BME280;42176;43.240;27.880;2023-04-02T14:49:00;99254.22;;;16.42;57.67
56270;BME280;42176;43.240;27.880;2023-04-02T14:51:49;99255.94;;;16.43;58.11
56270;BME280;42176;43.240;27.880;2023-04-02T14:54:39;99251.09;;;16.50;58.26
56270;BME280;42176;43.240;27.880;2023-04-02T14:57:23;99247.47;;;16.51;57.46
56270;BME280;42176;43.240;27.880;2023-04-02T15:00:36;99253.28;;;16.57;56.77
56270;BME280;42176;43.240;27.880;2023-04-02T15:08:18;99247.09;;;16.42;54.57
56270;BME280;42176;43.240;27.880;2023-04-02T15:10:55;99255.09;;;16.42;54.18
56270;BME280;42176;43.240;27.880;2023-04-02T15:13:46;99247.72;;;16.32;56.54
56270;BME280;42176;43.240;27.880;2023-04-02T15:16:19;99244.63;;;16.23;59.59
56270;BME280;42176;43.240;27.880;2023-04-02T15:18:49;99254.84;;;16.17;60.74
56270;BME280;42176;43.240;27.880;2023-04-02T15:24:14;99257.06;;;16.24;61.66
56270;BME280;42176;43.240;27.880;2023-04-02T15:43:28;99309.88;;;16.05;59.63
56270;BME280;42176;43.240;27.880;2023-04-02T16:00:01;99303.19;;;15.97;60.22
56270;BME280;42176;43.240;27.880;2023-04-02T16:05:41;99312.25;;;15.95;62.00
56270;BME280;42176;43.240;27.880;2023-04-02T16:08:59;99308.00;;;15.91;62.21
56270;BME280;42176;43.240;27.880;2023-04-02T16:11:11;99321.66;;;15.86;62.88
56270;BME280;42176;43.240;27.880;2023-04-02T16:13:38;99319.44;;;15.77;63.34
56270;BME280;42176;43.240;27.880;2023-04-02T16:16:35;99315.22;;;15.73;63.94
56270;BME280;42176;43.240;27.880;2023-04-02T16:19:06;99320.56;;;15.73;64.05
56270;BME280;42176;43.240;27.880;2023-04-02T16:21:39;99322.81;;;15.64;64.22
56270;BME280;42176;43.240;27.880;2023-04-02T16:24:10;99331.94;;;15.60;64.87
56270;BME280;42176;43.240;27.880;2023-04-02T16:37:55;99334.81;;;15.07;68.31
56270;BME280;42176;43.240;27.880;2023-04-02T16:40:35;99335.78;;;14.89;69.52
56270;BME280;42176;43.240;27.880;2023-04-02T16:45:52;99339.06;;;14.59;71.27
56270;BME280;42176;43.240;27.880;2023-04-02T16:48:37;99334.38;;;14.46;71.50
56270;BME280;42176;43.240;27.880;2023-04-02T16:51:35;99333.44;;;14.30;72.24
56270;BME280;42176;43.240;27.880;2023-04-02T16:54:15;99339.19;;;14.21;72.78
56270;BME280;42176;43.240;27.880;2023-04-02T16:57:35;99353.22;;;14.07;73.33
56270;BME280;42176;43.240;27.880;2023-04-02T17:13:37;99366.47;;;13.32;75.83
56270;BME280;42176;43.240;27.880;2023-04-02T17:16:20;99367.41;;;13.10;77.31
56270;BME280;42176;43.240;27.880;2023-04-02T17:18:50;99365.69;;;13.09;77.74
56270;BME280;42176;43.240;27.880;2023-04-02T17:21:23;99383.66;;;13.04;78.50
56270;BME280;42176;43.240;27.880;2023-04-02T17:26:19;99391.09;;;12.95;79.04
56270;BME280;42176;43.240;27.880;2023-04-02T17:28:48;99394.09;;;12.88;79.41
56270;BME280;42176;43.240;27.880;2023-04-02T17:31:21;99395.38;;;12.79;80.25
56270;BME280;42176;43.240;27.880;2023-04-02T17:33:48;99401.75;;;12.75;81.56